TimeCST,TemperatureF,Dew PointF,Humidity,Sea Level PressureIn,VisibilityMPH,Wind Direction,Wind SpeedMPH,Gust SpeedMPH,PrecipitationIn,Events,Conditions,WindDirDegrees,DateUTC
12:16 AM,50.0,46.4,87,29.69,10.0,East,9.2,-,N/A,,Clear,80,2012-11-10 06:16:00
12:41 AM,50.0,46.4,87,29.68,10.0,East,5.8,-,N/A,,Clear,80,2012-11-10 06:41:00
12:56 AM,50.0,46.4,87,29.68,10.0,ESE,8.1,-,N/A,,Clear,110,2012-11-10 06:56:00
1:22 AM,48.2,46.4,93,29.67,7.0,Calm,Calm,-,N/A,,Scattered Clouds,0,2012-11-10 07:22:00
1:46 AM,48.2,46.4,93,29.66,7.0,Calm,Calm,-,N/A,,Scattered Clouds,0,2012-11-10 07:46:00
1:56 AM,50.0,48.2,94,29.66,10.0,ESE,8.1,-,N/A,,Clear,110,2012-11-10 07:56:00
2:16 AM,50.0,48.2,94,29.65,7.0,East,12.7,-,N/A,,Clear,100,2012-11-10 08:16:00
2:36 AM,50.0,48.2,94,29.64,7.0,East,11.5,-,N/A,,Clear,100,2012-11-10 08:36:00
3:07 AM,51.8,48.2,88,29.63,7.0,East,10.4,-,N/A,,Scattered Clouds,100,2012-11-10 09:07:00
3:16 AM,51.8,48.2,88,29.62,7.0,ESE,10.4,-,N/A,,Scattered Clouds,110,2012-11-10 09:16:00
3:37 AM,51.8,50.0,94,29.62,7.0,East,13.8,17.3,N/A,,Scattered Clouds,100,2012-11-10 09:37:00
3:56 AM,51.8,50.0,94,29.61,7.0,East,11.5,-,N/A,,Scattered Clouds,100,2012-11-10 09:56:00
4:15 AM,51.4,50.2,95,29.60,7.0,ESE,9.2,-,N/A,,Clear,110,2012-11-10 10:15:00
4:18 AM,51.8,50.0,94,29.60,7.0,ESE,6.9,-,N/A,,Clear,110,2012-11-10 10:18:00
4:35 AM,51.4,50.5,97,29.60,7.0,ESE,9.2,-,N/A,,Clear,110,2012-11-10 10:35:00
4:55 AM,51.3,50.4,97,29.60,7.0,ESE,4.6,-,N/A,,Clear,120,2012-11-10 10:55:00
5:15 AM,51.8,50.9,97,29.59,7.0,ESE,6.9,-,N/A,,Clear,120,2012-11-10 11:15:00
5:35 AM,51.3,50.7,98,29.58,7.0,ESE,6.9,-,N/A,,Clear,120,2012-11-10 11:35:00
5:55 AM,51.1,50.5,98,29.58,5.0,SE,5.8,-,N/A,,Clear,130,2012-11-10 11:55:00
6:15 AM,50.9,50.4,98,29.57,5.0,SE,4.6,-,N/A,,Clear,130,2012-11-10 12:15:00
6:35 AM,50.4,50.0,99,29.58,4.0,Calm,Calm,-,N/A,,Scattered Clouds,0,2012-11-10 12:35:00
6:55 AM,49.8,49.6,99,29.57,4.0,Calm,Calm,-,N/A,,Scattered Clouds,0,2012-11-10 12:55:00
7:15 AM,50.0,50.0,100,29.57,4.0,Calm,Calm,-,N/A,,Clear,0,2012-11-10 13:15:00
7:35 AM,51.1,51.1,100,29.58,7.0,SE,6.9,-,N/A,,Clear,140,2012-11-10 13:35:00
7:55 AM,52.7,52.2,98,29.58,10.0,SSE,8.1,-,N/A,,Clear,150,2012-11-10 13:55:00
8:15 AM,54.3,53.1,95,29.57,10.0,SSE,9.2,-,N/A,,Clear,160,2012-11-10 14:15:00
8:35 AM,56.7,54.5,92,29.57,10.0,South,9.2,-,N/A,,Clear,170,2012-11-10 14:35:00
8:55 AM,58.5,55.0,88,29.57,10.0,South,9.2,-,N/A,,Clear,170,2012-11-10 14:55:00
9:15 AM,60.8,56.3,85,29.56,10.0,South,10.4,-,N/A,,Clear,190,2012-11-10 15:15:00
9:35 AM,62.4,56.5,81,29.56,10.0,SSW,11.5,16.1,N/A,,Clear,200,2012-11-10 15:35:00
9:55 AM,63.7,56.3,77,29.56,10.0,SSW,13.8,20.7,N/A,,Clear,200,2012-11-10 15:55:00
10:15 AM,65.7,54.0,66,29.56,10.0,SSW,21.9,28.8,N/A,,Clear,210,2012-11-10 16:15:00
10:35 AM,66.2,51.4,59,29.56,10.0,SSW,23.0,32.2,N/A,,Clear,210,2012-11-10 16:35:00
10:55 AM,66.4,50.0,56,29.57,10.0,SW,21.9,32.2,N/A,,Clear,220,2012-11-10 16:55:00
11:15 AM,66.7,50.0,55,29.57,10.0,SSW,23.0,32.2,N/A,,Clear,210,2012-11-10 17:15:00
11:35 AM,67.1,48.4,51,29.57,10.0,SW,21.9,29.9,N/A,,Clear,220,2012-11-10 17:35:00
11:55 AM,66.7,47.8,51,29.57,10.0,SW,24.2,28.8,N/A,,Clear,230,2012-11-10 17:55:00
12:15 PM,66.9,45.7,46,29.55,10.0,WSW,15.0,23.0,N/A,,Clear,240,2012-11-10 18:15:00
12:35 PM,67.3,44.4,44,29.54,10.0,SW,16.1,21.9,N/A,,Clear,230,2012-11-10 18:35:00
12:55 PM,67.3,43.7,42,29.55,10.0,SW,15.0,20.7,N/A,,Clear,230,2012-11-10 18:55:00
1:15 PM,67.8,43.5,41,29.53,10.0,WSW,11.5,19.6,N/A,,Clear,240,2012-11-10 19:15:00
1:35 PM,69.1,44.6,41,29.53,10.0,SW,10.4,-,N/A,,Clear,220,2012-11-10 19:35:00
1:55 PM,69.1,45.3,42,29.51,10.0,SW,10.4,-,N/A,,Clear,220,2012-11-10 19:55:00
2:15 PM,69.3,45.7,43,29.49,10.0,SW,6.9,-,N/A,,Scattered Clouds,220,2012-11-10 20:15:00
2:35 PM,69.6,46.2,43,29.49,10.0,SSW,8.1,-,N/A,,Scattered Clouds,210,2012-11-10 20:35:00
2:55 PM,69.3,46.4,44,29.48,10.0,SW,4.6,-,N/A,,Scattered Clouds,220,2012-11-10 20:55:00
3:15 PM,70.7,46.6,42,29.48,10.0,SW,4.6,-,N/A,,Scattered Clouds,230,2012-11-10 21:15:00
3:35 PM,71.1,47.1,42,29.47,10.0,South,3.5,-,N/A,,Clear,190,2012-11-10 21:35:00
3:55 PM,72.3,54.5,53,29.48,10.0,South,21.9,26.5,N/A,,Scattered Clouds,180,2012-11-10 21:55:00
4:15 PM,71.6,54.9,55,29.48,10.0,South,13.8,24.2,N/A,,Mostly Cloudy,180,2012-11-10 22:15:00
4:35 PM,70.3,55.0,58,29.48,10.0,South,15.0,23.0,N/A,,Mostly Cloudy,170,2012-11-10 22:35:00
4:55 PM,68.9,54.7,60,29.48,10.0,South,23.0,29.9,N/A,,Clear,180,2012-11-10 22:55:00
5:15 PM,69.3,54.7,60,29.48,10.0,South,13.8,21.9,N/A,,Mostly Cloudy,170,2012-11-10 23:15:00
5:35 PM,68.2,54.7,62,29.48,10.0,SSE,11.5,-,N/A,,Overcast,150,2012-11-10 23:35:00
5:55 PM,68.2,54.9,62,29.47,10.0,SSE,11.5,-,N/A,,Overcast,150,2012-11-10 23:55:00
6:15 PM,67.6,54.9,64,29.46,10.0,SSE,13.8,18.4,N/A,,Overcast,150,2012-11-11 00:15:00
6:35 PM,67.1,55.2,66,29.46,10.0,South,12.7,-,N/A,,Overcast,170,2012-11-11 00:35:00
6:55 PM,66.9,55.4,66,29.45,10.0,South,16.1,20.7,N/A,,Overcast,170,2012-11-11 00:55:00
7:15 PM,66.9,55.4,66,29.45,10.0,South,19.6,23.0,N/A,,Overcast,180,2012-11-11 01:15:00
7:35 PM,67.1,55.2,66,29.45,10.0,SSW,21.9,28.8,N/A,,Overcast,200,2012-11-11 01:35:00
7:55 PM,67.1,55.0,65,29.45,10.0,SSW,18.4,27.6,N/A,,Overcast,200,2012-11-11 01:55:00
8:15 PM,63.1,51.3,65,29.49,10.0,West,12.7,18.4,N/A,,Overcast,260,2012-11-11 02:15:00
8:35 PM,50.4,46.4,86,29.52,7.0,NNW,12.7,28.8,N/A,Rain,Light Rain,340,2012-11-11 02:35:00
8:55 PM,49.3,47.1,92,29.51,5.0,NNE,12.7,-,0.06,Rain-Thunderstorm,Heavy Thunderstorms and Rain,20,2012-11-11 02:55:00
9:15 PM,48.9,47.8,96,29.53,1.8,NE,6.9,-,0.12,Rain-Thunderstorm,Thunderstorms and Rain,50,2012-11-11 03:15:00
9:35 PM,49.5,48.9,98,29.54,4.0,Calm,Calm,-,0.15,Rain,Rain,0,2012-11-11 03:35:00
10:15 PM,48.2,47.5,97,29.60,5.0,West,9.2,16.1,0.03,Rain,Rain,270,2012-11-11 04:15:00
10:35 PM,47.1,46.2,97,29.62,2.5,West,11.5,18.4,0.10,,Overcast,270,2012-11-11 04:35:00
10:55 PM,46.4,45.3,96,29.62,7.0,WNW,11.5,20.7,0.13,Rain,Rain,290,2012-11-11 04:55:00
11:15 PM,45.5,44.6,97,29.60,10.0,WNW,10.4,17.3,0.01,Rain,Light Rain,300,2012-11-11 05:15:00
11:35 PM,44.8,43.7,96,29.61,10.0,WNW,11.5,-,0.01,,Mostly Cloudy,290,2012-11-11 05:35:00
11:55 PM,41.9,40.5,95,29.64,10.0,WNW,21.9,29.9,0.01,,Overcast,300,2012-11-11 05:55:00